Time;durP1;ratioP1;P1;durP2;ratioP2;P2;SDS_P1;SDS_P2;PMS_P1;PMS_P2;Temp;Humidity;BMP_temperature;BMP_pressure;BME280_temperature;BME280_humidity;BME280_pressure;Samples;Min_cycle;Max_cycle;Signal;HPM_P1;HPM_P2
2022/03/06 00:01:50;;;;;;;23.92;14.32;;;;;;;;;;4989677;28;20037;-73
2022/03/06 00:04:16;;;;;;;22.27;13.45;;;;;;;;;;4991672;28;20097;-73
2022/03/06 00:06:43;;;;;;;25.15;14.43;;;;;;;;;;4989733;28;20061;-73
2022/03/06 00:09:09;;;;;;;30.02;15.85;;;;;;;;;;5011009;28;20034;-74
2022/03/06 00:11:35;;;;;;;25.13;15.07;;;;;;;;;;5014768;28;20029;-73
2022/03/06 00:14:01;;;;;;;20.20;14.40;;;;;;;;;;5010676;28;20114;-74
2022/03/06 00:16:27;;;;;;;24.33;14.10;;;;;;;;;;5007686;28;20025;-73
2022/03/06 00:18:53;;;;;;;20.40;12.77;;;;;;;;;;5009085;28;20060;-73
2022/03/06 00:21:19;;;;;;;21.33;13.18;;;;;;;;;;5011198;28;20026;-73
2022/03/06 00:23:45;;;;;;;22.80;12.15;;;;;;;;;;5010144;28;20050;-74
2022/03/06 00:26:11;;;;;;;19.15;12.90;;;;;;;;;;5011113;28;20040;-73
2022/03/06 00:28:38;;;;;;;21.00;13.48;;;;;;;;;;4988134;28;20487;-73
2022/03/06 00:31:05;;;;;;;29.75;14.88;;;;;;;;;;5010451;28;20030;-73
2022/03/06 00:33:32;;;;;;;22.45;13.02;;;;;;;;;;5009617;28;20499;-73
2022/03/06 00:35:58;;;;;;;24.35;14.60;;;;;;;;;;5009547;28;20050;-73
2022/03/06 00:38:24;;;;;;;24.92;15.65;;;;;;;;;;5010005;28;20049;-72
2022/03/06 00:40:50;;;;;;;19.45;12.77;;;;;;;;;;5007601;28;20475;-73
2022/03/06 00:43:17;;;;;;;30.15;15.35;;;;;;;;;;5010019;28;20036;-74
2022/03/06 00:45:43;;;;;;;28.77;14.63;;;;;;;;;;5008364;28;20053;-73
2022/03/06 00:48:09;;;;;;;27.48;14.30;;;;;;;;;;5008802;28;20049;-74
2022/03/06 00:50:36;;;;;;;19.50;12.90;;;;;;;;;;5006760;28;20102;-73
2022/03/06 00:53:02;;;;;;;43.35;19.38;;;;;;;;;;4990957;28;20475;-72
2022/03/06 00:55:28;;;;;;;129.73;52.35;;;;;;;;;;5009445;28;20030;-73
2022/03/06 00:57:54;;;;;;;60.35;29.10;;;;;;;;;;5006994;28;20040;-73
2022/03/06 01:00:20;;;;;;;121.47;50.72;;;;;;;;;;5010982;28;20040;-74
2022/03/06 01:02:46;;;;;;;59.55;30.23;;;;;;;;;;5008263;28;20041;-73
2022/03/06 01:05:12;;;;;;;32.50;16.77;;;;;;;;;;5010744;28;20030;-74
2022/03/06 01:07:38;;;;;;;28.40;16.10;;;;;;;;;;5008026;28;20030;-73
2022/03/06 01:10:05;;;;;;;24.38;13.27;;;;;;;;;;5009950;28;20099;-73
2022/03/06 01:12:31;;;;;;;47.92;22.25;;;;;;;;;;5010609;28;20368;-73
2022/03/06 01:14:57;;;;;;;56.95;27.58;;;;;;;;;;5011030;28;20462;-73
2022/03/06 01:17:23;;;;;;;53.45;28.45;;;;;;;;;;4994649;28;20376;-73
2022/03/06 01:19:49;;;;;;;29.00;17.55;;;;;;;;;;5010493;28;20088;-73
2022/03/06 01:22:16;;;;;;;20.58;14.93;;;;;;;;;;5010963;28;20453;-73
2022/03/06 01:24:42;;;;;;;28.13;13.90;;;;;;;;;;5011108;28;20060;-73
2022/03/06 01:27:08;;;;;;;21.65;13.30;;;;;;;;;;5010326;28;20618;-74
2022/03/06 01:29:34;;;;;;;19.58;12.02;;;;;;;;;;5008012;28;20076;-73
2022/03/06 01:32:00;;;;;;;17.25;11.20;;;;;;;;;;5009924;28;20488;-73
2022/03/06 01:34:26;;;;;;;16.92;11.55;;;;;;;;;;5008345;28;20053;-73
2022/03/06 01:36:53;;;;;;;14.77;10.95;;;;;;;;;;5007980;28;20065;-73
2022/03/06 01:39:19;;;;;;;18.92;11.63;;;;;;;;;;5010135;28;20095;-73
2022/03/06 01:41:45;;;;;;;21.13;11.57;;;;;;;;;;5009779;28;20033;-73
2022/03/06 01:44:12;;;;;;;19.05;10.38;;;;;;;;;;5009581;28;20033;-73
2022/03/06 01:46:38;;;;;;;23.45;12.45;;;;;;;;;;5009684;28;20041;-73
2022/03/06 01:49:04;;;;;;;19.35;10.95;;;;;;;;;;5009391;28;20058;-73
2022/03/06 01:51:30;;;;;;;22.75;11.18;;;;;;;;;;5007867;28;20026;-73
2022/03/06 01:53:56;;;;;;;19.17;12.38;;;;;;;;;;5009679;28;20112;-72
2022/03/06 01:56:22;;;;;;;23.63;10.73;;;;;;;;;;5005574;28;20041;-72
2022/03/06 01:58:49;;;;;;;17.30;11.63;;;;;;;;;;5007868;28;20068;-72
2022/03/06 02:01:15;;;;;;;19.58;10.80;;;;;;;;;;5008619;28;20026;-72
2022/03/06 02:03:41;;;;;;;18.45;11.02;;;;;;;;;;5008367;28;20092;-72
2022/03/06 02:06:08;;;;;;;15.10;11.60;;;;;;;;;;5007023;28;20060;-72
2022/03/06 02:08:34;;;;;;;19.45;11.60;;;;;;;;;;5006659;28;20026;-72
2022/03/06 02:11:01;;;;;;;19.42;11.20;;;;;;;;;;5008367;28;20033;-73
2022/03/06 02:13:27;;;;;;;18.88;10.85;;;;;;;;;;5009148;28;20026;-74
2022/03/06 02:15:54;;;;;;;18.90;11.48;;;;;;;;;;5009581;28;20113;-73
2022/03/06 02:18:20;;;;;;;19.63;10.85;;;;;;;;;;5011535;28;20514;-73
2022/03/06 02:20:47;;;;;;;18.35;10.07;;;;;;;;;;5009302;28;20614;-74
2022/03/06 02:23:13;;;;;;;15.30;10.88;;;;;;;;;;5008826;28;20046;-74
2022/03/06 02:25:39;;;;;;;20.25;11.20;;;;;;;;;;5009591;28;20018;-74
2022/03/06 02:28:07;;;;;;;20.48;12.23;;;;;;;;;;5008317;28;20072;-74
2022/03/06 02:30:35;;;;;;;19.65;11.15;;;;;;;;;;4990816;28;20029;-74
2022/03/06 02:33:02;;;;;;;19.70;11.60;;;;;;;;;;5007924;28;20021;-74
2022/03/06 02:35:29;;;;;;;22.10;11.88;;;;;;;;;;5009431;28;20040;-74
2022/03/06 02:37:55;;;;;;;21.35;12.20;;;;;;;;;;5007413;28;20400;-73
2022/03/06 02:40:22;;;;;;;20.80;12.05;;;;;;;;;;5008502;28;20026;-73
2022/03/06 02:42:48;;;;;;;18.85;11.77;;;;;;;;;;4993266;28;20037;-73
2022/03/06 02:45:17;;;;;;;24.60;13.00;;;;;;;;;;5009029;28;20033;-73
2022/03/06 02:47:44;;;;;;;22.88;12.88;;;;;;;;;;5008308;28;20034;-73
2022/03/06 02:50:11;;;;;;;19.63;12.63;;;;;;;;;;5007976;28;20022;-73
2022/03/06 02:52:37;;;;;;;23.48;12.93;;;;;;;;;;4992357;28;20396;-73
2022/03/06 02:55:04;;;;;;;26.17;13.20;;;;;;;;;;5007917;28;20796;-73
2022/03/06 02:57:30;;;;;;;21.20;13.30;;;;;;;;;;5009047;28;20030;-73
2022/03/06 02:59:56;;;;;;;19.67;12.68;;;;;;;;;;4990099;28;20026;-73
2022/03/06 03:02:22;;;;;;;24.05;14.32;;;;;;;;;;5008498;28;20044;-73
2022/03/06 03:04:48;;;;;;;21.70;12.23;;;;;;;;;;5007584;28;20030;-74
2022/03/06 03:07:15;;;;;;;21.95;13.02;;;;;;;;;;5008213;28;20053;-73
2022/03/06 03:09:41;;;;;;;26.77;12.90;;;;;;;;;;5007370;28;20472;-74
2022/03/06 03:12:07;;;;;;;21.17;12.75;;;;;;;;;;5010613;28;20033;-74
2022/03/06 03:14:35;;;;;;;24.42;12.82;;;;;;;;;;5011883;28;20029;-74
2022/03/06 03:17:02;;;;;;;20.80;12.65;;;;;;;;;;5014700;28;20029;-74
2022/03/06 03:19:28;;;;;;;19.00;12.75;;;;;;;;;;5010407;28;20034;-73
2022/03/06 03:21:55;;;;;;;21.02;12.35;;;;;;;;;;5012703;28;20730;-73
2022/03/06 03:24:21;;;;;;;22.35;14.00;;;;;;;;;;5012081;28;20121;-73
2022/03/06 03:26:47;;;;;;;20.23;12.68;;;;;;;;;;5012183;28;20124;-73
2022/03/06 03:29:14;;;;;;;21.05;13.27;;;;;;;;;;4995768;28;20156;-73
2022/03/06 03:31:40;;;;;;;27.27;13.35;;;;;;;;;;5008198;28;20037;-73
2022/03/06 03:34:06;;;;;;;20.50;13.20;;;;;;;;;;5012466;28;20574;-74
2022/03/06 03:36:32;;;;;;;21.15;12.77;;;;;;;;;;5012936;28;20439;-73
2022/03/06 03:38:58;;;;;;;20.23;13.00;;;;;;;;;;5011457;28;20030;-72
2022/03/06 03:41:24;;;;;;;17.10;12.30;;;;;;;;;;5012296;28;20412;-73
2022/03/06 03:43:51;;;;;;;18.33;11.73;;;;;;;;;;5011890;28;20025;-74
2022/03/06 03:46:18;;;;;;;19.13;12.10;;;;;;;;;;5011201;28;20643;-73
2022/03/06 03:48:44;;;;;;;22.13;12.90;;;;;;;;;;5011365;28;20026;-73
2022/03/06 03:51:11;;;;;;;23.77;12.18;;;;;;;;;;5008436;28;20033;-73
2022/03/06 03:53:37;;;;;;;18.58;12.75;;;;;;;;;;5009171;28;20464;-73
2022/03/06 03:56:04;;;;;;;20.48;12.65;;;;;;;;;;5005004;28;20451;-73
2022/03/06 03:58:31;;;;;;;19.08;12.07;;;;;;;;;;5011931;28;20570;-72
2022/03/06 04:00:57;;;;;;;18.95;11.05;;;;;;;;;;5010743;28;20032;-73
2022/03/06 04:03:23;;;;;;;22.58;12.00;;;;;;;;;;5010481;28;20471;-73
2022/03/06 04:05:49;;;;;;;23.33;10.93;;;;;;;;;;5011557;28;20059;-74
2022/03/06 04:08:16;;;;;;;16.90;10.77;;;;;;;;;;5011337;28;20492;-74
2022/03/06 04:10:42;;;;;;;20.15;11.38;;;;;;;;;;5011710;28;20041;-72
2022/03/06 04:13:08;;;;;;;17.08;11.52;;;;;;;;;;5008961;28;20212;-74
2022/03/06 04:15:34;;;;;;;19.73;11.45;;;;;;;;;;5011022;28;20098;-72
2022/03/06 04:18:00;;;;;;;17.05;11.52;;;;;;;;;;5008915;28;20395;-73
2022/03/06 04:20:26;;;;;;;14.93;11.05;;;;;;;;;;5010008;28;20064;-73
2022/03/06 04:22:52;;;;;;;13.98;10.10;;;;;;;;;;5008973;28;20107;-72
2022/03/06 04:25:18;;;;;;;15.82;10.88;;;;;;;;;;5010529;28;20393;-71
2022/03/06 04:27:44;;;;;;;18.20;10.57;;;;;;;;;;4990925;28;20029;-72
2022/03/06 04:30:11;;;;;;;18.58;10.35;;;;;;;;;;5010172;28;20116;-73
2022/03/06 04:32:37;;;;;;;23.25;12.45;;;;;;;;;;5011223;28;20033;-73
2022/03/06 04:35:04;;;;;;;16.10;10.52;;;;;;;;;;5010510;28;20498;-73
2022/03/06 04:37:30;;;;;;;24.42;11.88;;;;;;;;;;5010557;28;20084;-73
2022/03/06 04:39:56;;;;;;;23.73;12.88;;;;;;;;;;5010647;28;20539;-73
2022/03/06 04:42:22;;;;;;;18.50;12.25;;;;;;;;;;4995682;28;20395;-73
2022/03/06 04:44:48;;;;;;;16.42;11.80;;;;;;;;;;5006417;28;20034;-73
2022/03/06 04:47:15;;;;;;;19.73;12.05;;;;;;;;;;5008259;28;20056;-73
2022/03/06 04:49:41;;;;;;;18.38;11.57;;;;;;;;;;5009610;28;20399;-73
2022/03/06 04:52:07;;;;;;;20.60;11.45;;;;;;;;;;5010408;28;20145;-72
2022/03/06 04:54:33;;;;;;;18.08;11.20;;;;;;;;;;5011081;28;20030;-73
2022/03/06 04:57:00;;;;;;;17.77;10.27;;;;;;;;;;5009894;28;20025;-74
2022/03/06 04:59:27;;;;;;;15.23;10.27;;;;;;;;;;5011120;28;20037;-73
2022/03/06 05:01:54;;;;;;;19.77;12.30;;;;;;;;;;5007962;28;20045;-73
2022/03/06 05:04:20;;;;;;;21.27;11.88;;;;;;;;;;5008503;28;20535;-73
2022/03/06 05:06:46;;;;;;;18.30;11.25;;;;;;;;;;5010844;28;20026;-73
2022/03/06 05:09:12;;;;;;;18.00;12.88;;;;;;;;;;5010052;28;20092;-73
2022/03/06 05:11:38;;;;;;;20.33;11.63;;;;;;;;;;5010143;28;20026;-73
2022/03/06 05:14:04;;;;;;;17.73;12.35;;;;;;;;;;5009027;28;20040;-73
2022/03/06 05:16:30;;;;;;;17.92;12.00;;;;;;;;;;5008626;28;20034;-73
2022/03/06 05:18:56;;;;;;;23.67;13.23;;;;;;;;;;5010727;28;20040;-74
2022/03/06 05:21:23;;;;;;;22.95;12.50;;;;;;;;;;5006046;28;20080;-73
2022/03/06 05:23:49;;;;;;;19.98;13.35;;;;;;;;;;5013815;28;20050;-73
2022/03/06 05:26:15;;;;;;;21.55;13.57;;;;;;;;;;4993826;28;20025;-73
2022/03/06 05:28:41;;;;;;;21.00;13.75;;;;;;;;;;5010418;28;20034;-73
2022/03/06 05:31:10;;;;;;;18.77;11.30;;;;;;;;;;5008136;28;20057;-73
2022/03/06 05:33:36;;;;;;;22.30;12.55;;;;;;;;;;5010400;28;20030;-73
2022/03/06 05:36:03;;;;;;;22.70;13.65;;;;;;;;;;5008960;28;20029;-73
2022/03/06 05:38:29;;;;;;;17.00;12.63;;;;;;;;;;5010369;28;20080;-73
2022/03/06 05:40:55;;;;;;;20.88;12.15;;;;;;;;;;5007807;28;20021;-73
2022/03/06 05:43:21;;;;;;;20.70;13.60;;;;;;;;;;5006742;28;20045;-73
2022/03/06 05:45:52;;;;;;;20.70;12.13;;;;;;;;;;5010625;28;20054;-73
2022/03/06 05:48:19;;;;;;;18.80;12.00;;;;;;;;;;5009377;28;20021;-73
2022/03/06 05:50:45;;;;;;;20.42;13.13;;;;;;;;;;5005018;28;20101;-73
2022/03/06 05:53:11;;;;;;;19.70;13.27;;;;;;;;;;5008365;28;20029;-73
2022/03/06 05:55:37;;;;;;;21.42;12.68;;;;;;;;;;4991709;28;20112;-72
2022/03/06 05:58:03;;;;;;;20.92;12.60;;;;;;;;;;5009606;28;20034;-72
2022/03/06 06:00:29;;;;;;;22.17;12.48;;;;;;;;;;4989954;28;20053;-72
2022/03/06 06:02:56;;;;;;;17.63;12.60;;;;;;;;;;5009893;28;20030;-73
2022/03/06 06:05:22;;;;;;;20.50;12.90;;;;;;;;;;5003620;28;20022;-74
2022/03/06 06:07:48;;;;;;;19.80;12.90;;;;;;;;;;4992134;28;20185;-73
2022/03/06 06:10:14;;;;;;;22.23;12.23;;;;;;;;;;5012529;28;20365;-74
2022/03/06 06:12:41;;;;;;;23.38;13.15;;;;;;;;;;4992232;28;20543;-74
2022/03/06 06:15:07;;;;;;;20.33;12.63;;;;;;;;;;5008027;28;20476;-73
2022/03/06 06:17:34;;;;;;;16.73;12.73;;;;;;;;;;5008061;28;20038;-73
2022/03/06 06:20:00;;;;;;;18.20;11.40;;;;;;;;;;5009794;28;20081;-73
2022/03/06 06:22:28;;;;;;;18.33;11.48;;;;;;;;;;5002520;28;20036;-73
2022/03/06 06:24:54;;;;;;;19.48;13.32;;;;;;;;;;5010324;28;20494;-72
2022/03/06 06:27:21;;;;;;;21.27;12.75;;;;;;;;;;5005524;28;20042;-73
2022/03/06 06:29:47;;;;;;;23.80;13.20;;;;;;;;;;4992870;28;20030;-72
2022/03/06 06:32:13;;;;;;;18.95;11.80;;;;;;;;;;5008875;28;20064;-72
2022/03/06 06:34:39;;;;;;;20.52;12.85;;;;;;;;;;5009094;28;20025;-72
2022/03/06 06:37:06;;;;;;;17.90;12.70;;;;;;;;;;5009517;28;20030;-72
2022/03/06 06:39:32;;;;;;;18.50;12.13;;;;;;;;;;5004723;28;20065;-72
2022/03/06 06:42:01;;;;;;;21.90;12.30;;;;;;;;;;5009552;28;20034;-73
2022/03/06 06:44:27;;;;;;;19.05;12.63;;;;;;;;;;4990289;28;20144;-72
2022/03/06 06:46:53;;;;;;;19.33;12.38;;;;;;;;;;5011911;28;20113;-72
2022/03/06 06:49:19;;;;;;;17.38;11.90;;;;;;;;;;5011953;28;20561;-73
2022/03/06 06:51:45;;;;;;;19.80;11.93;;;;;;;;;;5011509;28;20659;-73
2022/03/06 06:54:13;;;;;;;20.45;11.52;;;;;;;;;;5010398;28;20117;-73
2022/03/06 06:56:39;;;;;;;20.65;12.15;;;;;;;;;;5012060;28;20030;-73
2022/03/06 06:59:05;;;;;;;14.82;10.82;;;;;;;;;;4989484;28;20033;-72
2022/03/06 07:01:31;;;;;;;21.60;12.30;;;;;;;;;;5011128;28;20033;-73
2022/03/06 07:03:57;;;;;;;20.63;11.60;;;;;;;;;;5012194;28;20423;-73
2022/03/06 07:06:23;;;;;;;17.67;11.65;;;;;;;;;;5010415;28;20033;-73
2022/03/06 07:08:49;;;;;;;21.95;11.35;;;;;;;;;;5011142;28;20083;-73
2022/03/06 07:11:15;;;;;;;16.73;10.95;;;;;;;;;;5012220;28;20045;-73
2022/03/06 07:13:41;;;;;;;16.92;11.27;;;;;;;;;;5012590;28;20069;-72
2022/03/06 07:16:08;;;;;;;20.27;12.00;;;;;;;;;;4994077;28;20049;-72
2022/03/06 07:18:34;;;;;;;15.55;10.45;;;;;;;;;;4998657;28;20400;-72
2022/03/06 07:21:02;;;;;;;17.85;11.32;;;;;;;;;;5011585;28;20076;-72
2022/03/06 07:23:29;;;;;;;19.80;11.93;;;;;;;;;;5012318;28;20081;-72
2022/03/06 07:25:55;;;;;;;19.70;12.25;;;;;;;;;;5008932;28;20030;-73
2022/03/06 07:28:21;;;;;;;18.65;11.10;;;;;;;;;;5010876;28;20065;-73
2022/03/06 07:30:48;;;;;;;18.02;11.90;;;;;;;;;;5011435;28;20041;-73
2022/03/06 07:33:14;;;;;;;17.80;10.43;;;;;;;;;;5012148;28;20029;-73
2022/03/06 07:35:40;;;;;;;17.08;11.20;;;;;;;;;;5010921;28;20032;-74
2022/03/06 07:38:06;;;;;;;15.70;12.13;;;;;;;;;;4994305;28;20471;-73
2022/03/06 07:40:33;;;;;;;20.15;11.98;;;;;;;;;;5007749;28;20034;-73
2022/03/06 07:42:59;;;;;;;20.05;12.00;;;;;;;;;;4994302;28;20491;-73
2022/03/06 07:45:25;;;;;;;19.70;12.30;;;;;;;;;;5011044;28;20050;-73
2022/03/06 07:47:51;;;;;;;21.17;12.10;;;;;;;;;;5012365;28;20029;-73
2022/03/06 07:50:17;;;;;;;17.05;10.85;;;;;;;;;;5011529;28;20054;-73
2022/03/06 07:52:43;;;;;;;20.83;12.00;;;;;;;;;;5010234;28;20045;-73
2022/03/06 07:55:10;;;;;;;21.00;12.35;;;;;;;;;;5009206;28;20038;-73
2022/03/06 07:57:37;;;;;;;17.33;11.73;;;;;;;;;;5010029;28;20030;-72
2022/03/06 08:00:07;;;;;;;18.10;11.70;;;;;;;;;;5009270;28;20041;-73
2022/03/06 08:02:33;;;;;;;14.85;11.38;;;;;;;;;;5007375;28;20030;-72
2022/03/06 08:04:59;;;;;;;19.80;11.45;;;;;;;;;;5011179;28;20081;-73
2022/03/06 08:07:25;;;;;;;19.08;13.00;;;;;;;;;;5009737;28;20054;-72
2022/03/06 08:09:51;;;;;;;17.05;11.95;;;;;;;;;;5012314;28;20507;-73
2022/03/06 08:12:17;;;;;;;17.90;12.55;;;;;;;;;;4992472;28;20030;-73
2022/03/06 08:14:43;;;;;;;16.50;10.93;;;;;;;;;;5011898;28;20033;-73
2022/03/06 08:17:09;;;;;;;18.63;11.25;;;;;;;;;;5009912;28;20101;-72
2022/03/06 08:19:35;;;;;;;16.63;11.50;;;;;;;;;;5011876;28;20079;-73
2022/03/06 08:22:01;;;;;;;17.40;11.30;;;;;;;;;;5007389;28;20044;-73
2022/03/06 08:24:28;;;;;;;16.02;11.63;;;;;;;;;;5011183;28;20053;-73
2022/03/06 08:26:54;;;;;;;16.73;12.02;;;;;;;;;;5009198;28;20033;-72
2022/03/06 08:29:20;;;;;;;18.48;10.95;;;;;;;;;;5010191;28;20100;-73
2022/03/06 08:31:46;;;;;;;20.30;12.07;;;;;;;;;;5010339;28;20052;-73
2022/03/06 08:34:12;;;;;;;16.10;11.85;;;;;;;;;;5009464;28;20717;-73
2022/03/06 08:36:39;;;;;;;15.98;10.65;;;;;;;;;;5013391;28;20088;-73
2022/03/06 08:39:05;;;;;;;13.48;11.35;;;;;;;;;;5007963;28;20578;-72
2022/03/06 08:41:31;;;;;;;19.05;12.18;;;;;;;;;;5009932;28;20369;-73
2022/03/06 08:43:57;;;;;;;16.55;10.90;;;;;;;;;;5005282;28;20030;-74
2022/03/06 08:46:23;;;;;;;16.55;9.77;;;;;;;;;;5008317;28;20374;-74
2022/03/06 08:48:49;;;;;;;13.43;9.77;;;;;;;;;;4992884;28;20057;-73
2022/03/06 08:51:15;;;;;;;15.57;9.70;;;;;;;;;;4992014;28;20426;-73
2022/03/06 08:53:41;;;;;;;12.85;9.57;;;;;;;;;;5008016;28;20042;-73
2022/03/06 08:56:07;;;;;;;12.25;9.32;;;;;;;;;;4996357;28;20049;-73
2022/03/06 08:58:35;;;;;;;16.33;10.63;;;;;;;;;;4988201;28;20034;-73
2022/03/06 09:01:01;;;;;;;14.82;8.13;;;;;;;;;;5009147;28;20040;-73
2022/03/06 09:03:27;;;;;;;14.88;9.77;;;;;;;;;;5010295;28;20489;-73
2022/03/06 09:05:53;;;;;;;12.30;9.25;;;;;;;;;;5010514;28;20029;-73
2022/03/06 09:08:19;;;;;;;12.48;8.40;;;;;;;;;;4993427;28;20032;-73
2022/03/06 09:10:45;;;;;;;10.60;8.75;;;;;;;;;;5008454;28;20293;-73
2022/03/06 09:13:11;;;;;;;16.05;8.65;;;;;;;;;;5010463;28;20434;-74
2022/03/06 09:15:38;;;;;;;12.05;8.02;;;;;;;;;;5011158;28;20026;-74
2022/03/06 09:18:04;;;;;;;10.88;7.63;;;;;;;;;;5011301;28;20526;-75
2022/03/06 09:20:31;;;;;;;13.00;7.55;;;;;;;;;;5009243;28;20026;-74
2022/03/06 09:22:58;;;;;;;10.98;8.40;;;;;;;;;;5008222;28;20088;-75
2022/03/06 09:25:24;;;;;;;12.35;9.02;;;;;;;;;;5009384;28;20030;-75
2022/03/06 09:27:50;;;;;;;14.32;8.82;;;;;;;;;;5009922;28;20026;-75
2022/03/06 09:30:16;;;;;;;8.20;7.40;;;;;;;;;;5009351;28;20057;-75
2022/03/06 09:32:43;;;;;;;10.57;7.55;;;;;;;;;;5007900;28;21014;-75
2022/03/06 09:35:10;;;;;;;13.40;8.35;;;;;;;;;;5012617;28;20068;-75
2022/03/06 09:37:36;;;;;;;9.48;6.72;;;;;;;;;;5005741;28;20670;-75
2022/03/06 09:40:05;;;;;;;14.63;7.00;;;;;;;;;;5003168;28;20026;-76
2022/03/06 09:42:32;;;;;;;8.73;6.28;;;;;;;;;;5008615;28;20033;-76
2022/03/06 09:45:02;;;;;;;10.00;7.25;;;;;;;;;;4992532;28;20392;-75
2022/03/06 09:47:28;;;;;;;9.90;6.53;;;;;;;;;;5001499;28;20049;-75
2022/03/06 09:49:54;;;;;;;12.43;6.72;;;;;;;;;;5002241;28;20486;-75
2022/03/06 09:52:20;;;;;;;12.48;7.47;;;;;;;;;;5002149;28;20124;-75
2022/03/06 09:54:47;;;;;;;9.50;5.93;;;;;;;;;;5002381;28;20064;-76
2022/03/06 09:57:18;;;;;;;11.70;6.47;;;;;;;;;;5003537;28;20430;-76
2022/03/06 09:59:44;;;;;;;12.88;6.20;;;;;;;;;;5004394;28;20202;-76
2022/03/06 10:02:11;;;;;;;8.05;5.72;;;;;;;;;;5001297;28;20038;-76
2022/03/06 10:04:38;;;;;;;11.60;5.82;;;;;;;;;;5003191;28;20115;-79
2022/03/06 10:07:05;;;;;;;11.18;6.30;;;;;;;;;;5003467;28;20032;-75
2022/03/06 10:09:42;;;;;;;11.23;6.47;;;;;;;;;;5002409;28;20503;-76
2022/03/06 10:12:18;;;;;;;11.15;6.68;;;;;;;;;;5002985;28;20072;-75
2022/03/06 10:14:44;;;;;;;10.50;6.05;;;;;;;;;;4989081;28;20040;-76
2022/03/06 10:17:15;;;;;;;7.15;5.72;;;;;;;;;;5004001;28;20065;-76
2022/03/06 10:19:48;;;;;;;10.95;5.40;;;;;;;;;;5003743;28;20192;-76
2022/03/06 10:22:14;;;;;;;10.85;6.15;;;;;;;;;;4999693;28;20211;-75
2022/03/06 10:24:50;;;;;;;9.82;5.57;;;;;;;;;;5002937;28;20049;-77
2022/03/06 10:27:16;;;;;;;11.95;5.88;;;;;;;;;;4992220;28;20036;-76
2022/03/06 10:29:42;;;;;;;7.55;5.35;;;;;;;;;;5002585;28;20107;-77
2022/03/06 10:32:09;;;;;;;11.18;6.68;;;;;;;;;;5003553;28;20038;-76
2022/03/06 10:34:38;;;;;;;7.18;5.30;;;;;;;;;;5004036;28;20026;-75
2022/03/06 10:37:05;;;;;;;10.20;5.07;;;;;;;;;;5005686;28;20025;-76
2022/03/06 10:39:43;;;;;;;8.35;5.15;;;;;;;;;;5007211;28;20093;-76
2022/03/06 10:42:10;;;;;;;10.45;5.03;;;;;;;;;;5013183;28;20818;-75
2022/03/06 10:44:46;;;;;;;9.25;4.65;;;;;;;;;;5003973;28;20033;-77
2022/03/06 10:47:12;;;;;;;7.90;5.03;;;;;;;;;;5004137;28;20045;-76
2022/03/06 10:49:38;;;;;;;7.90;4.65;;;;;;;;;;5002394;28;20030;-77
2022/03/06 10:52:18;;;;;;;6.88;4.38;;;;;;;;;;5004448;28;20165;-77
2022/03/06 10:54:54;;;;;;;6.15;4.40;;;;;;;;;;4988647;28;20037;-77
2022/03/06 10:57:21;;;;;;;9.23;4.40;;;;;;;;;;5004944;28;20036;-77
2022/03/06 10:59:48;;;;;;;8.80;4.50;;;;;;;;;;5005422;28;20104;-76
2022/03/06 11:02:15;;;;;;;11.57;5.13;;;;;;;;;;5005229;28;20073;-76
2022/03/06 11:04:41;;;;;;;7.10;3.13;;;;;;;;;;5003931;28;20030;-76
2022/03/06 11:07:07;;;;;;;6.95;3.13;;;;;;;;;;5004137;28;20037;-77
2022/03/06 11:09:33;;;;;;;8.35;3.17;;;;;;;;;;5004182;28;20030;-77
2022/03/06 11:11:59;;;;;;;4.53;2.40;;;;;;;;;;5005096;28;20111;-76
2022/03/06 11:14:26;;;;;;;3.92;2.00;;;;;;;;;;5003569;28;20084;-76
2022/03/06 11:16:52;;;;;;;3.90;2.10;;;;;;;;;;5003393;28;20581;-77
2022/03/06 11:19:18;;;;;;;3.95;1.85;;;;;;;;;;5005036;28;20017;-76
2022/03/06 11:21:46;;;;;;;5.38;2.65;;;;;;;;;;5004409;28;20117;-76
2022/03/06 11:24:13;;;;;;;4.78;2.25;;;;;;;;;;5004745;28;20042;-76
2022/03/06 11:26:58;;;;;;;5.00;1.85;;;;;;;;;;5003855;28;20029;-76
2022/03/06 11:29:39;;;;;;;5.40;2.00;;;;;;;;;;5000349;28;20969;-77
2022/03/06 11:32:06;;;;;;;5.13;2.05;;;;;;;;;;4986314;28;20033;-77
2022/03/06 11:34:34;;;;;;;3.90;1.88;;;;;;;;;;5007718;28;20034;-77
2022/03/06 11:37:04;;;;;;;4.38;2.17;;;;;;;;;;5006731;28;20056;-77
2022/03/06 11:39:30;;;;;;;8.18;2.67;;;;;;;;;;5005980;28;20180;-76
2022/03/06 11:41:57;;;;;;;5.65;1.88;;;;;;;;;;5006617;28;20033;-77
2022/03/06 11:44:33;;;;;;;4.75;2.20;;;;;;;;;;5007897;28;20074;-76
2022/03/06 11:47:00;;;;;;;11.00;2.40;;;;;;;;;;4989652;28;20030;-76
2022/03/06 11:49:34;;;;;;;5.65;2.10;;;;;;;;;;5008030;28;20029;-75
2022/03/06 11:52:00;;;;;;;3.67;2.05;;;;;;;;;;4991436;28;20116;-76
2022/03/06 11:54:40;;;;;;;3.65;2.10;;;;;;;;;;4993804;28;20038;-76
2022/03/06 11:57:06;;;;;;;5.70;2.40;;;;;;;;;;5007836;28;20034;-76
2022/03/06 11:59:34;;;;;;;3.55;2.10;;;;;;;;;;5006746;28;20037;-77
2022/03/06 12:02:01;;;;;;;3.55;2.13;;;;;;;;;;5005684;28;20041;-77
2022/03/06 12:04:32;;;;;;;3.55;2.08;;;;;;;;;;4991216;28;20030;-77
2022/03/06 12:06:59;;;;;;;4.00;2.00;;;;;;;;;;5005414;28;20092;-77
2022/03/06 12:09:27;;;;;;;4.32;3.10;;;;;;;;;;5007136;28;20108;-77
2022/03/06 12:11:54;;;;;;;5.60;2.30;;;;;;;;;;5006920;28;20041;-77
2022/03/06 12:14:35;;;;;;;5.20;2.17;;;;;;;;;;5007708;28;20037;-76
2022/03/06 12:17:02;;;;;;;4.15;2.03;;;;;;;;;;5007686;28;20120;-76
2022/03/06 12:19:48;;;;;;;4.95;2.00;;;;;;;;;;5007663;28;20030;-76
2022/03/06 12:22:19;;;;;;;6.47;2.00;;;;;;;;;;4994806;28;20154;-77
2022/03/06 12:24:47;;;;;;;6.68;2.53;;;;;;;;;;4966944;28;20496;-77
2022/03/06 12:27:14;;;;;;;5.10;2.40;;;;;;;;;;4961955;28;20038;-77
2022/03/06 12:29:46;;;;;;;4.32;2.20;;;;;;;;;;4966125;28;20023;-76
2022/03/06 12:32:27;;;;;;;3.55;2.17;;;;;;;;;;4966470;28;20416;-76
2022/03/06 12:34:58;;;;;;;5.53;2.20;;;;;;;;;;4966492;28;20031;-76
2022/03/06 12:37:29;;;;;;;5.30;2.28;;;;;;;;;;4966130;28;20054;-75
2022/03/06 12:39:55;;;;;;;5.88;2.13;;;;;;;;;;4965243;28;20557;-77
2022/03/06 12:42:25;;;;;;;6.05;2.10;;;;;;;;;;4965090;28;20137;-77
2022/03/06 12:44:56;;;;;;;5.88;2.80;;;;;;;;;;4963637;28;20033;-77
2022/03/06 12:47:22;;;;;;;4.05;2.17;;;;;;;;;;4962873;28;20027;-76
2022/03/06 12:49:49;;;;;;;3.78;1.90;;;;;;;;;;4966471;28;20034;-76
2022/03/06 12:52:19;;;;;;;3.25;1.90;;;;;;;;;;4957007;28;20080;-77
2022/03/06 12:54:46;;;;;;;6.80;3.30;;;;;;;;;;4966096;28;20023;-77
2022/03/06 12:57:12;;;;;;;6.40;2.35;;;;;;;;;;4964765;28;20711;-77
2022/03/06 12:59:41;;;;;;;4.97;2.30;;;;;;;;;;4965945;28;20023;-77
2022/03/06 13:02:07;;;;;;;6.72;2.20;;;;;;;;;;4967369;28;20033;-76
2022/03/06 13:04:36;;;;;;;6.72;3.60;;;;;;;;;;4965991;28;20429;-76
2022/03/06 13:07:07;;;;;;;3.53;2.45;;;;;;;;;;4962601;28;20082;-76
2022/03/06 13:09:36;;;;;;;4.20;2.55;;;;;;;;;;4964646;28;20078;-76
2022/03/06 13:12:03;;;;;;;5.18;2.50;;;;;;;;;;4968114;28;20480;-76
2022/03/06 13:14:34;;;;;;;6.32;2.05;;;;;;;;;;4965639;28;20035;-76
2022/03/06 13:17:06;;;;;;;5.80;2.72;;;;;;;;;;4977707;28;20038;-76
2022/03/06 13:19:42;;;;;;;7.90;2.90;;;;;;;;;;4963516;28;20457;-76
2022/03/06 13:22:10;;;;;;;4.40;2.28;;;;;;;;;;4967185;28;20030;-76
2022/03/06 13:25:02;;;;;;;4.78;2.58;;;;;;;;;;5001404;28;20049;-76
2022/03/06 13:27:29;;;;;;;4.70;2.20;;;;;;;;;;4985155;28;20042;-76
2022/03/06 13:30:04;;;;;;;5.97;2.55;;;;;;;;;;5004620;28;20026;-77
2022/03/06 13:32:30;;;;;;;5.38;2.60;;;;;;;;;;5005108;28;20407;-77
2022/03/06 13:34:56;;;;;;;4.03;2.70;;;;;;;;;;5003670;28;20120;-77
2022/03/06 13:37:36;;;;;;;6.55;2.70;;;;;;;;;;5006225;28;20038;-77
2022/03/06 13:40:13;;;;;;;4.95;2.33;;;;;;;;;;4990346;28;20029;-77
2022/03/06 13:42:39;;;;;;;5.65;2.17;;;;;;;;;;5003114;28;20056;-77
2022/03/06 13:45:09;;;;;;;5.13;2.38;;;;;;;;;;4998162;28;20100;-76
2022/03/06 13:47:39;;;;;;;6.45;2.28;;;;;;;;;;5004782;28;20017;-78
2022/03/06 13:50:06;;;;;;;5.55;2.42;;;;;;;;;;4987826;28;20033;-78
2022/03/06 13:52:36;;;;;;;6.35;2.80;;;;;;;;;;5005499;28;20081;-77
2022/03/06 13:55:04;;;;;;;4.53;2.25;;;;;;;;;;4985866;28;20499;-79
2022/03/06 13:57:30;;;;;;;5.13;2.33;;;;;;;;;;5002016;28;20030;-77
2022/03/06 13:59:56;;;;;;;5.10;2.35;;;;;;;;;;5003690;28;20025;-77
2022/03/06 14:02:27;;;;;;;6.18;2.58;;;;;;;;;;5001589;28;20036;-76
2022/03/06 14:04:53;;;;;;;5.50;2.70;;;;;;;;;;5004188;28;20052;-77
2022/03/06 14:07:24;;;;;;;4.65;2.30;;;;;;;;;;5004617;28;20037;-76
2022/03/06 14:09:50;;;;;;;5.30;2.53;;;;;;;;;;5004643;28;20029;-77
2022/03/06 14:12:17;;;;;;;5.93;2.58;;;;;;;;;;5004169;28;20356;-77
2022/03/06 14:14:49;;;;;;;3.70;2.85;;;;;;;;;;4986101;28;20034;-77
2022/03/06 14:17:16;;;;;;;3.50;2.40;;;;;;;;;;4985877;28;20073;-78
2022/03/06 14:19:55;;;;;;;3.97;2.17;;;;;;;;;;5004324;28;20037;-77
2022/03/06 14:22:21;;;;;;;6.95;2.47;;;;;;;;;;5005535;28;20029;-76
2022/03/06 14:24:47;;;;;;;4.28;2.60;;;;;;;;;;5003662;28;20032;-77
2022/03/06 14:27:14;;;;;;;5.10;2.60;;;;;;;;;;5002193;28;20028;-77